sensor_id;sensor_type;location;lat;lon;timestamp;P1;durP1;ratioP1;P2;durP2;ratioP2
21833;SDS011;11079;51.092;3.458;2023-07-20T00:02:23;13.23;;;6.78;;
21833;SDS011;11079;51.092;3.458;2023-07-20T00:04:49;12.43;;;6.10;;
21833;SDS011;11079;51.092;3.458;2023-07-20T00:07:14;16.40;;;7.47;;
21833;SDS011;11079;51.092;3.458;2023-07-20T00:09:40;12.20;;;6.97;;
21833;SDS011;11079;51.092;3.458;2023-07-20T00:12:05;13.93;;;6.40;;
21833;SDS011;11079;51.092;3.458;2023-07-20T00:14:32;14.75;;;6.80;;
21833;SDS011;11079;51.092;3.458;2023-07-20T00:16:59;12.13;;;6.90;;
21833;SDS011;11079;51.092;3.458;2023-07-20T00:19:27;13.23;;;6.72;;
21833;SDS011;11079;51.092;3.458;2023-07-20T00:21:54;13.75;;;7.28;;
21833;SDS011;11079;51.092;3.458;2023-07-20T00:24:19;11.15;;;6.95;;
21833;SDS011;11079;51.092;3.458;2023-07-20T00:26:45;16.55;;;7.03;;
21833;SDS011;11079;51.092;3.458;2023-07-20T00:29:11;14.13;;;7.30;;
21833;SDS011;11079;51.092;3.458;2023-07-20T00:31:37;16.80;;;6.97;;
21833;SDS011;11079;51.092;3.458;2023-07-20T00:34:03;14.15;;;6.70;;
21833;SDS011;11079;51.092;3.458;2023-07-20T00:36:29;18.33;;;8.45;;
21833;SDS011;11079;51.092;3.458;2023-07-20T00:38:55;15.20;;;8.02;;
21833;SDS011;11079;51.092;3.458;2023-07-20T00:41:20;11.98;;;6.95;;
21833;SDS011;11079;51.092;3.458;2023-07-20T00:43:46;14.70;;;7.38;;
21833;SDS011;11079;51.092;3.458;2023-07-20T00:46:12;13.13;;;7.55;;
21833;SDS011;11079;51.092;3.458;2023-07-20T00:48:38;16.95;;;8.02;;
21833;SDS011;11079;51.092;3.458;2023-07-20T00:51:05;13.70;;;7.60;;
21833;SDS011;11079;51.092;3.458;2023-07-20T00:53:31;17.30;;;7.97;;
21833;SDS011;11079;51.092;3.458;2023-07-20T00:55:56;14.35;;;7.55;;
21833;SDS011;11079;51.092;3.458;2023-07-20T00:58:22;16.55;;;8.30;;
21833;SDS011;11079;51.092;3.458;2023-07-20T01:00:49;13.23;;;7.82;;
21833;SDS011;11079;51.092;3.458;2023-07-20T01:03:14;18.27;;;8.38;;
21833;SDS011;11079;51.092;3.458;2023-07-20T01:11:43;14.90;;;8.10;;
21833;SDS011;11079;51.092;3.458;2023-07-20T01:14:15;16.73;;;8.75;;
21833;SDS011;11079;51.092;3.458;2023-07-20T01:16:42;15.18;;;8.98;;
21833;SDS011;11079;51.092;3.458;2023-07-20T01:19:08;15.00;;;8.93;;
21833;SDS011;11079;51.092;3.458;2023-07-20T01:21:41;12.45;;;8.75;;
21833;SDS011;11079;51.092;3.458;2023-07-20T01:32:59;18.17;;;9.77;;
21833;SDS011;11079;51.092;3.458;2023-07-20T01:35:27;21.85;;;10.95;;
21833;SDS011;11079;51.092;3.458;2023-07-20T01:37:54;20.85;;;10.45;;
21833;SDS011;11079;51.092;3.458;2023-07-20T01:40:22;21.80;;;11.45;;
21833;SDS011;11079;51.092;3.458;2023-07-20T01:42:50;20.63;;;11.52;;
21833;SDS011;11079;51.092;3.458;2023-07-20T01:45:17;20.17;;;11.75;;
21833;SDS011;11079;51.092;3.458;2023-07-20T01:47:43;21.38;;;11.68;;
21833;SDS011;11079;51.092;3.458;2023-07-20T01:50:08;17.88;;;11.60;;
21833;SDS011;11079;51.092;3.458;2023-07-20T01:52:34;18.33;;;11.93;;
21833;SDS011;11079;51.092;3.458;2023-07-20T01:55:00;18.17;;;11.38;;
21833;SDS011;11079;51.092;3.458;2023-07-20T01:57:27;20.92;;;12.32;;
21833;SDS011;11079;51.092;3.458;2023-07-20T01:59:53;20.40;;;12.32;;
21833;SDS011;11079;51.092;3.458;2023-07-20T02:02:18;17.80;;;11.25;;
21833;SDS011;11079;51.092;3.458;2023-07-20T02:04:45;20.10;;;11.70;;
21833;SDS011;11079;51.092;3.458;2023-07-20T02:07:11;17.25;;;10.90;;
21833;SDS011;11079;51.092;3.458;2023-07-20T02:09:37;17.20;;;10.75;;
21833;SDS011;11079;51.092;3.458;2023-07-20T02:12:02;17.60;;;10.57;;
21833;SDS011;11079;51.092;3.458;2023-07-20T02:14:28;19.40;;;11.15;;
21833;SDS011;11079;51.092;3.458;2023-07-20T02:16:54;18.98;;;10.27;;
21833;SDS011;11079;51.092;3.458;2023-07-20T02:19:24;16.02;;;10.15;;
21833;SDS011;11079;51.092;3.458;2023-07-20T02:21:50;15.18;;;10.23;;
21833;SDS011;11079;51.092;3.458;2023-07-20T02:24:16;17.85;;;10.48;;
21833;SDS011;11079;51.092;3.458;2023-07-20T02:26:42;15.23;;;10.35;;
21833;SDS011;11079;51.092;3.458;2023-07-20T02:29:08;15.95;;;9.70;;
21833;SDS011;11079;51.092;3.458;2023-07-20T02:31:36;18.35;;;9.82;;
21833;SDS011;11079;51.092;3.458;2023-07-20T02:34:02;17.23;;;10.43;;
21833;SDS011;11079;51.092;3.458;2023-07-20T02:36:28;12.35;;;8.88;;
21833;SDS011;11079;51.092;3.458;2023-07-20T02:38:53;13.30;;;9.40;;
21833;SDS011;11079;51.092;3.458;2023-07-20T02:41:19;15.40;;;9.30;;
21833;SDS011;11079;51.092;3.458;2023-07-20T02:43:46;13.52;;;9.30;;
21833;SDS011;11079;51.092;3.458;2023-07-20T02:46:11;13.77;;;8.93;;
21833;SDS011;11079;51.092;3.458;2023-07-20T02:48:37;11.63;;;9.02;;
21833;SDS011;11079;51.092;3.458;2023-07-20T02:51:03;13.73;;;8.98;;
21833;SDS011;11079;51.092;3.458;2023-07-20T02:53:29;13.30;;;8.63;;
21833;SDS011;11079;51.092;3.458;2023-07-20T02:55:54;13.55;;;9.35;;
21833;SDS011;11079;51.092;3.458;2023-07-20T02:58:21;12.57;;;8.80;;
21833;SDS011;11079;51.092;3.458;2023-07-20T03:00:47;12.32;;;8.90;;
21833;SDS011;11079;51.092;3.458;2023-07-20T03:03:12;13.32;;;8.88;;
21833;SDS011;11079;51.092;3.458;2023-07-20T03:05:40;16.05;;;9.48;;
21833;SDS011;11079;51.092;3.458;2023-07-20T03:08:06;15.57;;;9.25;;
21833;SDS011;11079;51.092;3.458;2023-07-20T03:10:37;14.30;;;9.60;;
21833;SDS011;11079;51.092;3.458;2023-07-20T03:13:04;14.82;;;9.23;;
21833;SDS011;11079;51.092;3.458;2023-07-20T03:15:29;12.57;;;9.30;;
21833;SDS011;11079;51.092;3.458;2023-07-20T03:17:57;12.90;;;9.32;;
21833;SDS011;11079;51.092;3.458;2023-07-20T03:20:23;11.95;;;8.27;;
21833;SDS011;11079;51.092;3.458;2023-07-20T03:22:49;15.55;;;8.93;;
21833;SDS011;11079;51.092;3.458;2023-07-20T03:25:15;13.95;;;8.98;;
21833;SDS011;11079;51.092;3.458;2023-07-20T03:27:41;11.63;;;8.20;;
21833;SDS011;11079;51.092;3.458;2023-07-20T03:30:06;12.60;;;8.52;;
21833;SDS011;11079;51.092;3.458;2023-07-20T03:32:34;11.05;;;8.18;;
21833;SDS011;11079;51.092;3.458;2023-07-20T03:35:00;15.57;;;9.15;;
21833;SDS011;11079;51.092;3.458;2023-07-20T03:37:26;13.30;;;8.85;;
21833;SDS011;11079;51.092;3.458;2023-07-20T03:39:52;11.80;;;8.00;;
21833;SDS011;11079;51.092;3.458;2023-07-20T03:42:17;12.07;;;8.45;;
21833;SDS011;11079;51.092;3.458;2023-07-20T03:44:43;14.75;;;9.25;;
21833;SDS011;11079;51.092;3.458;2023-07-20T03:47:08;14.63;;;9.52;;
21833;SDS011;11079;51.092;3.458;2023-07-20T03:49:34;11.80;;;9.23;;
21833;SDS011;11079;51.092;3.458;2023-07-20T03:52:00;15.32;;;8.85;;
21833;SDS011;11079;51.092;3.458;2023-07-20T03:54:28;13.85;;;9.13;;
21833;SDS011;11079;51.092;3.458;2023-07-20T03:56:54;11.27;;;8.70;;
21833;SDS011;11079;51.092;3.458;2023-07-20T03:59:19;11.80;;;8.00;;
21833;SDS011;11079;51.092;3.458;2023-07-20T04:01:47;12.77;;;8.95;;
21833;SDS011;11079;51.092;3.458;2023-07-20T04:04:15;15.63;;;9.07;;
21833;SDS011;11079;51.092;3.458;2023-07-20T04:06:41;12.30;;;9.88;;
21833;SDS011;11079;51.092;3.458;2023-07-20T04:09:09;14.43;;;8.38;;
21833;SDS011;11079;51.092;3.458;2023-07-20T04:11:36;13.63;;;8.88;;
21833;SDS011;11079;51.092;3.458;2023-07-20T04:14:02;12.48;;;9.25;;
21833;SDS011;11079;51.092;3.458;2023-07-20T04:16:38;13.00;;;8.75;;
21833;SDS011;11079;51.092;3.458;2023-07-20T04:19:03;14.77;;;8.98;;
21833;SDS011;11079;51.092;3.458;2023-07-20T04:21:39;13.75;;;9.10;;
21833;SDS011;11079;51.092;3.458;2023-07-20T04:24:11;11.60;;;8.80;;
21833;SDS011;11079;51.092;3.458;2023-07-20T04:26:37;18.67;;;9.82;;
21833;SDS011;11079;51.092;3.458;2023-07-20T04:29:04;14.68;;;8.95;;
21833;SDS011;11079;51.092;3.458;2023-07-20T04:31:29;18.13;;;9.93;;
21833;SDS011;11079;51.092;3.458;2023-07-20T04:33:58;14.65;;;10.18;;
21833;SDS011;11079;51.092;3.458;2023-07-20T04:36:25;11.63;;;8.85;;
21833;SDS011;11079;51.092;3.458;2023-07-20T04:38:51;11.85;;;8.57;;
21833;SDS011;11079;51.092;3.458;2023-07-20T04:41:16;11.13;;;9.15;;
21833;SDS011;11079;51.092;3.458;2023-07-20T04:43:43;13.65;;;9.48;;
21833;SDS011;11079;51.092;3.458;2023-07-20T04:46:09;13.00;;;9.85;;
21833;SDS011;11079;51.092;3.458;2023-07-20T04:48:36;10.70;;;8.90;;
21833;SDS011;11079;51.092;3.458;2023-07-20T04:51:02;12.82;;;9.63;;
21833;SDS011;11079;51.092;3.458;2023-07-20T04:53:28;10.73;;;9.13;;
21833;SDS011;11079;51.092;3.458;2023-07-20T04:55:54;12.90;;;9.32;;
21833;SDS011;11079;51.092;3.458;2023-07-20T04:58:20;11.93;;;9.02;;
21833;SDS011;11079;51.092;3.458;2023-07-20T05:00:47;11.60;;;8.60;;
21833;SDS011;11079;51.092;3.458;2023-07-20T05:03:14;14.80;;;9.02;;
21833;SDS011;11079;51.092;3.458;2023-07-20T05:05:39;13.02;;;9.15;;
21833;SDS011;11079;51.092;3.458;2023-07-20T05:08:05;11.25;;;8.07;;
21833;SDS011;11079;51.092;3.458;2023-07-20T05:10:31;11.48;;;8.20;;
21833;SDS011;11079;51.092;3.458;2023-07-20T05:12:57;13.27;;;8.73;;
21833;SDS011;11079;51.092;3.458;2023-07-20T05:15:23;10.27;;;8.07;;
21833;SDS011;11079;51.092;3.458;2023-07-20T05:17:49;9.80;;;7.85;;
21833;SDS011;11079;51.092;3.458;2023-07-20T05:20:15;11.10;;;9.35;;
21833;SDS011;11079;51.092;3.458;2023-07-20T05:22:40;11.88;;;7.93;;
21833;SDS011;11079;51.092;3.458;2023-07-20T05:25:07;13.73;;;9.23;;
21833;SDS011;11079;51.092;3.458;2023-07-20T05:27:34;13.65;;;9.23;;
21833;SDS011;11079;51.092;3.458;2023-07-20T05:30:03;11.25;;;8.02;;
21833;SDS011;11079;51.092;3.458;2023-07-20T05:32:30;12.23;;;8.20;;
21833;SDS011;11079;51.092;3.458;2023-07-20T05:34:56;11.45;;;8.73;;
21833;SDS011;11079;51.092;3.458;2023-07-20T05:37:22;11.90;;;8.80;;
21833;SDS011;11079;51.092;3.458;2023-07-20T05:39:49;17.00;;;8.90;;
21833;SDS011;11079;51.092;3.458;2023-07-20T05:42:17;13.40;;;8.93;;
21833;SDS011;11079;51.092;3.458;2023-07-20T05:44:50;14.55;;;8.38;;
21833;SDS011;11079;51.092;3.458;2023-07-20T05:47:24;13.15;;;8.73;;
21833;SDS011;11079;51.092;3.458;2023-07-20T05:49:53;12.05;;;8.38;;
21833;SDS011;11079;51.092;3.458;2023-07-20T05:52:35;10.32;;;8.25;;
21833;SDS011;11079;51.092;3.458;2023-07-20T05:55:14;9.65;;;7.95;;
21833;SDS011;11079;51.092;3.458;2023-07-20T05:57:39;10.70;;;8.63;;
21833;SDS011;11079;51.092;3.458;2023-07-20T06:00:28;9.88;;;7.78;;
21833;SDS011;11079;51.092;3.458;2023-07-20T06:03:03;12.00;;;8.00;;
21833;SDS011;11079;51.092;3.458;2023-07-20T06:06:06;8.85;;;6.85;;
21833;SDS011;11079;51.092;3.458;2023-07-20T06:09:05;8.20;;;6.15;;
21833;SDS011;11079;51.092;3.458;2023-07-20T06:12:17;7.13;;;5.10;;
21833;SDS011;11079;51.092;3.458;2023-07-20T06:15:28;6.85;;;4.50;;
21833;SDS011;11079;51.092;3.458;2023-07-20T06:18:30;6.53;;;4.10;;
21833;SDS011;11079;51.092;3.458;2023-07-20T06:20:56;8.55;;;4.13;;
21833;SDS011;11079;51.092;3.458;2023-07-20T06:23:22;3.95;;;3.53;;
21833;SDS011;11079;51.092;3.458;2023-07-20T06:25:48;6.93;;;4.05;;
21833;SDS011;11079;51.092;3.458;2023-07-20T06:28:13;8.73;;;5.10;;
21833;SDS011;11079;51.092;3.458;2023-07-20T06:30:39;5.60;;;4.13;;
21833;SDS011;11079;51.092;3.458;2023-07-20T06:33:05;6.20;;;3.58;;
21833;SDS011;11079;51.092;3.458;2023-07-20T06:35:31;4.13;;;2.35;;
21833;SDS011;11079;51.092;3.458;2023-07-20T06:37:57;4.28;;;2.35;;
21833;SDS011;11079;51.092;3.458;2023-07-20T06:40:25;2.72;;;2.03;;
21833;SDS011;11079;51.092;3.458;2023-07-20T06:42:51;3.28;;;2.08;;
21833;SDS011;11079;51.092;3.458;2023-07-20T06:45:17;3.80;;;2.53;;
21833;SDS011;11079;51.092;3.458;2023-07-20T06:47:44;2.50;;;2.10;;
21833;SDS011;11079;51.092;3.458;2023-07-20T06:50:09;3.75;;;2.33;;
21833;SDS011;11079;51.092;3.458;2023-07-20T06:52:36;5.38;;;2.50;;
21833;SDS011;11079;51.092;3.458;2023-07-20T06:55:01;3.78;;;2.50;;
21833;SDS011;11079;51.092;3.458;2023-07-20T06:57:27;3.13;;;2.08;;
21833;SDS011;11079;51.092;3.458;2023-07-20T07:00:00;3.75;;;2.75;;
21833;SDS011;11079;51.092;3.458;2023-07-20T07:02:26;3.33;;;1.98;;
21833;SDS011;11079;51.092;3.458;2023-07-20T07:04:53;3.38;;;1.80;;
21833;SDS011;11079;51.092;3.458;2023-07-20T07:07:20;4.15;;;2.42;;
21833;SDS011;11079;51.092;3.458;2023-07-20T07:09:45;3.47;;;2.60;;
21833;SDS011;11079;51.092;3.458;2023-07-20T07:12:11;5.47;;;2.83;;
21833;SDS011;11079;51.092;3.458;2023-07-20T07:14:36;3.78;;;2.00;;
21833;SDS011;11079;51.092;3.458;2023-07-20T07:17:02;2.40;;;1.80;;
21833;SDS011;11079;51.092;3.458;2023-07-20T07:19:28;3.17;;;1.63;;
21833;SDS011;11079;51.092;3.458;2023-07-20T07:21:53;1.50;;;1.20;;
21833;SDS011;11079;51.092;3.458;2023-07-20T07:24:19;3.75;;;1.30;;
21833;SDS011;11079;51.092;3.458;2023-07-20T07:26:45;1.55;;;1.20;;
21833;SDS011;11079;51.092;3.458;2023-07-20T07:29:10;3.03;;;1.33;;
21833;SDS011;11079;51.092;3.458;2023-07-20T07:31:36;1.63;;;1.52;;
21833;SDS011;11079;51.092;3.458;2023-07-20T07:34:03;2.10;;;1.30;;
21833;SDS011;11079;51.092;3.458;2023-07-20T07:36:30;4.45;;;1.40;;
21833;SDS011;11079;51.092;3.458;2023-07-20T07:39:12;1.30;;;1.20;;
21833;SDS011;11079;51.092;3.458;2023-07-20T07:41:38;1.20;;;1.08;;
21833;SDS011;11079;51.092;3.458;2023-07-20T07:44:04;1.55;;;0.98;;
21833;SDS011;11079;51.092;3.458;2023-07-20T07:46:30;2.63;;;1.17;;
21833;SDS011;11079;51.092;3.458;2023-07-20T07:48:56;1.00;;;0.90;;
21833;SDS011;11079;51.092;3.458;2023-07-20T07:51:21;1.20;;;1.00;;
21833;SDS011;11079;51.092;3.458;2023-07-20T07:53:47;2.90;;;1.40;;
21833;SDS011;11079;51.092;3.458;2023-07-20T07:56:14;2.60;;;1.00;;
21833;SDS011;11079;51.092;3.458;2023-07-20T07:58:39;1.27;;;1.08;;
21833;SDS011;11079;51.092;3.458;2023-07-20T08:01:05;2.17;;;1.10;;
21833;SDS011;11079;51.092;3.458;2023-07-20T08:03:31;3.13;;;1.10;;
21833;SDS011;11079;51.092;3.458;2023-07-20T08:05:56;1.40;;;0.88;;
21833;SDS011;11079;51.092;3.458;2023-07-20T08:08:23;2.65;;;1.00;;
21833;SDS011;11079;51.092;3.458;2023-07-20T08:10:49;1.50;;;1.30;;
21833;SDS011;11079;51.092;3.458;2023-07-20T08:13:18;2.33;;;1.20;;
21833;SDS011;11079;51.092;3.458;2023-07-20T08:15:45;1.50;;;1.33;;
21833;SDS011;11079;51.092;3.458;2023-07-20T08:18:15;2.28;;;1.17;;
21833;SDS011;11079;51.092;3.458;2023-07-20T08:20:48;2.58;;;1.13;;
21833;SDS011;11079;51.092;3.458;2023-07-20T08:23:14;1.45;;;1.33;;
21833;SDS011;11079;51.092;3.458;2023-07-20T08:25:43;1.05;;;0.90;;
21833;SDS011;11079;51.092;3.458;2023-07-20T08:28:29;1.30;;;1.20;;
21833;SDS011;11079;51.092;3.458;2023-07-20T08:30:56;2.38;;;1.55;;
21833;SDS011;11079;51.092;3.458;2023-07-20T08:33:21;1.25;;;0.90;;
21833;SDS011;11079;51.092;3.458;2023-07-20T08:35:49;2.05;;;1.10;;
21833;SDS011;11079;51.092;3.458;2023-07-20T08:38:14;1.40;;;1.00;;
21833;SDS011;11079;51.092;3.458;2023-07-20T08:40:41;3.10;;;0.98;;
21833;SDS011;11079;51.092;3.458;2023-07-20T08:46:38;1.35;;;1.05;;
21833;SDS011;11079;51.092;3.458;2023-07-20T08:49:07;1.83;;;1.30;;
21833;SDS011;11079;51.092;3.458;2023-07-20T08:51:34;1.52;;;1.23;;
21833;SDS011;11079;51.092;3.458;2023-07-20T08:54:01;3.42;;;1.70;;
21833;SDS011;11079;51.092;3.458;2023-07-20T08:56:28;2.33;;;1.45;;
21833;SDS011;11079;51.092;3.458;2023-07-20T08:58:56;3.38;;;1.52;;
21833;SDS011;11079;51.092;3.458;2023-07-20T09:01:22;1.40;;;1.20;;
21833;SDS011;11079;51.092;3.458;2023-07-20T09:03:49;2.42;;;1.70;;
21833;SDS011;11079;51.092;3.458;2023-07-20T09:06:16;2.58;;;1.75;;
21833;SDS011;11079;51.092;3.458;2023-07-20T09:08:42;3.47;;;1.55;;
21833;SDS011;11079;51.092;3.458;2023-07-20T09:11:12;1.73;;;1.60;;
21833;SDS011;11079;51.092;3.458;2023-07-20T09:13:40;2.80;;;1.75;;
21833;SDS011;11079;51.092;3.458;2023-07-20T09:16:05;2.47;;;1.60;;
21833;SDS011;11079;51.092;3.458;2023-07-20T09:18:31;2.05;;;1.50;;
21833;SDS011;11079;51.092;3.458;2023-07-20T09:21:02;3.25;;;1.88;;
21833;SDS011;11079;51.092;3.458;2023-07-20T09:23:30;2.65;;;1.67;;
21833;SDS011;11079;51.092;3.458;2023-07-20T09:26:11;2.05;;;1.85;;
21833;SDS011;11079;51.092;3.458;2023-07-20T09:28:50;2.38;;;1.25;;
21833;SDS011;11079;51.092;3.458;2023-07-20T09:31:17;1.58;;;1.40;;
21833;SDS011;11079;51.092;3.458;2023-07-20T09:33:44;3.72;;;1.35;;
21833;SDS011;11079;51.092;3.458;2023-07-20T09:36:10;1.85;;;1.63;;
21833;SDS011;11079;51.092;3.458;2023-07-20T09:38:36;2.80;;;1.70;;
21833;SDS011;11079;51.092;3.458;2023-07-20T09:41:04;3.83;;;1.70;;
21833;SDS011;11079;51.092;3.458;2023-07-20T09:43:31;2.33;;;2.13;;
21833;SDS011;11079;51.092;3.458;2023-07-20T09:45:59;3.20;;;1.88;;
21833;SDS011;11079;51.092;3.458;2023-07-20T09:48:25;3.97;;;1.83;;
21833;SDS011;11079;51.092;3.458;2023-07-20T09:50:51;3.47;;;2.22;;
21833;SDS011;11079;51.092;3.458;2023-07-20T09:53:38;2.42;;;1.98;;
21833;SDS011;11079;51.092;3.458;2023-07-20T09:56:06;2.08;;;1.55;;
21833;SDS011;11079;51.092;3.458;2023-07-20T09:58:46;1.83;;;1.48;;
21833;SDS011;11079;51.092;3.458;2023-07-20T10:01:21;3.40;;;1.65;;
21833;SDS011;11079;51.092;3.458;2023-07-20T10:03:47;1.73;;;1.40;;
21833;SDS011;11079;51.092;3.458;2023-07-20T10:06:20;2.65;;;1.75;;
21833;SDS011;11079;51.092;3.458;2023-07-20T10:09:00;2.72;;;1.90;;
21833;SDS011;11079;51.092;3.458;2023-07-20T10:11:40;3.67;;;2.03;;
21833;SDS011;11079;51.092;3.458;2023-07-20T10:14:50;2.58;;;1.90;;
21833;SDS011;11079;51.092;3.458;2023-07-20T10:18:11;3.22;;;1.83;;
21833;SDS011;11079;51.092;3.458;2023-07-20T10:20:45;3.05;;;1.63;;
21833;SDS011;11079;51.092;3.458;2023-07-20T10:23:34;2.78;;;2.00;;
21833;SDS011;11079;51.092;3.458;2023-07-20T10:26:01;1.92;;;1.80;;
21833;SDS011;11079;51.092;3.458;2023-07-20T10:28:28;2.15;;;1.50;;
21833;SDS011;11079;51.092;3.458;2023-07-20T10:30:53;2.65;;;1.50;;
21833;SDS011;11079;51.092;3.458;2023-07-20T10:34:13;2.22;;;1.83;;
21833;SDS011;11079;51.092;3.458;2023-07-20T10:37:46;1.63;;;1.52;;
21833;SDS011;11079;51.092;3.458;2023-07-20T10:40:23;2.95;;;1.88;;
21833;SDS011;11079;51.092;3.458;2023-07-20T10:43:16;1.65;;;1.55;;
21833;SDS011;11079;51.092;3.458;2023-07-20T10:45:48;2.38;;;1.80;;
21833;SDS011;11079;51.092;3.458;2023-07-20T10:48:21;2.75;;;2.10;;
21833;SDS011;11079;51.092;3.458;2023-07-20T10:53:48;2.67;;;2.33;;
21833;SDS011;11079;51.092;3.458;2023-07-20T10:56:15;3.15;;;2.00;;
21833;SDS011;11079;51.092;3.458;2023-07-20T10:58:45;3.70;;;2.60;;
21833;SDS011;11079;51.092;3.458;2023-07-20T11:01:36;2.90;;;2.30;;
21833;SDS011;11079;51.092;3.458;2023-07-20T11:04:44;3.88;;;2.60;;
21833;SDS011;11079;51.092;3.458;2023-07-20T11:11:42;2.85;;;2.45;;
21833;SDS011;11079;51.092;3.458;2023-07-20T11:15:10;3.33;;;2.50;;
21833;SDS011;11079;51.092;3.458;2023-07-20T11:18:34;6.05;;;2.40;;
21833;SDS011;11079;51.092;3.458;2023-07-20T11:21:10;2.97;;;2.20;;
21833;SDS011;11079;51.092;3.458;2023-07-20T11:27:07;4.97;;;2.00;;
21833;SDS011;11079;51.092;3.458;2023-07-20T11:29:42;2.78;;;2.22;;
21833;SDS011;11079;51.092;3.458;2023-07-20T11:33:08;2.60;;;2.20;;
21833;SDS011;11079;51.092;3.458;2023-07-20T11:35:44;4.22;;;3.10;;
21833;SDS011;11079;51.092;3.458;2023-07-20T11:38:13;3.30;;;2.45;;
21833;SDS011;11079;51.092;3.458;2023-07-20T11:40:44;3.10;;;2.33;;
21833;SDS011;11079;51.092;3.458;2023-07-20T11:43:19;3.10;;;1.77;;
21833;SDS011;11079;51.092;3.458;2023-07-20T11:49:00;3.63;;;2.22;;
21833;SDS011;11079;51.092;3.458;2023-07-20T11:52:25;3.15;;;2.28;;
21833;SDS011;11079;51.092;3.458;2023-07-20T11:58:10;3.38;;;2.22;;
21833;SDS011;11079;51.092;3.458;2023-07-20T12:00:37;2.08;;;1.88;;
21833;SDS011;11079;51.092;3.458;2023-07-20T12:03:05;3.05;;;2.63;;
21833;SDS011;11079;51.092;3.458;2023-07-20T12:05:36;4.30;;;2.15;;
21833;SDS011;11079;51.092;3.458;2023-07-20T12:08:03;3.28;;;2.30;;
21833;SDS011;11079;51.092;3.458;2023-07-20T12:10:29;2.60;;;2.40;;
21833;SDS011;11079;51.092;3.458;2023-07-20T12:13:00;3.78;;;2.47;;
21833;SDS011;11079;51.092;3.458;2023-07-20T12:15:28;2.80;;;2.40;;
21833;SDS011;11079;51.092;3.458;2023-07-20T12:17:59;4.60;;;2.50;;
21833;SDS011;11079;51.092;3.458;2023-07-20T12:20:26;3.20;;;2.90;;
21833;SDS011;11079;51.092;3.458;2023-07-20T12:22:58;3.67;;;2.35;;
21833;SDS011;11079;51.092;3.458;2023-07-20T12:25:48;5.47;;;2.15;;
21833;SDS011;11079;51.092;3.458;2023-07-20T12:28:17;3.75;;;1.90;;
21833;SDS011;11079;51.092;3.458;2023-07-20T12:30:45;3.22;;;2.00;;
21833;SDS011;11079;51.092;3.458;2023-07-20T12:33:12;4.80;;;2.53;;
21833;SDS011;11079;51.092;3.458;2023-07-20T12:35:40;13.95;;;3.15;;
21833;SDS011;11079;51.092;3.458;2023-07-20T12:38:08;3.63;;;2.20;;
21833;SDS011;11079;51.092;3.458;2023-07-20T12:40:34;7.30;;;2.42;;
21833;SDS011;11079;51.092;3.458;2023-07-20T12:43:01;4.45;;;2.60;;
21833;SDS011;11079;51.092;3.458;2023-07-20T12:45:26;2.85;;;2.00;;
21833;SDS011;11079;51.092;3.458;2023-07-20T12:47:52;2.13;;;1.65;;
21833;SDS011;11079;51.092;3.458;2023-07-20T12:50:18;3.47;;;1.75;;
21833;SDS011;11079;51.092;3.458;2023-07-20T12:52:43;1.90;;;1.70;;
21833;SDS011;11079;51.092;3.458;2023-07-20T12:55:09;4.10;;;2.20;;
21833;SDS011;11079;51.092;3.458;2023-07-20T12:57:35;2.55;;;1.92;;
21833;SDS011;11079;51.092;3.458;2023-07-20T13:00:02;2.55;;;1.98;;
21833;SDS011;11079;51.092;3.458;2023-07-20T13:02:30;2.95;;;2.03;;
21833;SDS011;11079;51.092;3.458;2023-07-20T13:04:57;3.70;;;2.03;;
21833;SDS011;11079;51.092;3.458;2023-07-20T13:07:30;2.60;;;2.10;;
21833;SDS011;11079;51.092;3.458;2023-07-20T13:09:57;2.83;;;2.30;;
21833;SDS011;11079;51.092;3.458;2023-07-20T13:12:25;2.88;;;1.90;;
21833;SDS011;11079;51.092;3.458;2023-07-20T13:14:54;4.05;;;2.17;;
21833;SDS011;11079;51.092;3.458;2023-07-20T13:17:21;2.70;;;2.10;;
21833;SDS011;11079;51.092;3.458;2023-07-20T13:19:50;3.92;;;2.28;;
21833;SDS011;11079;51.092;3.458;2023-07-20T13:22:15;6.53;;;4.38;;
21833;SDS011;11079;51.092;3.458;2023-07-20T13:25:07;4.05;;;2.90;;
21833;SDS011;11079;51.092;3.458;2023-07-20T13:27:33;4.82;;;3.63;;
21833;SDS011;11079;51.092;3.458;2023-07-20T13:29:59;5.80;;;3.70;;
21833;SDS011;11079;51.092;3.458;2023-07-20T13:32:31;4.25;;;3.40;;
21833;SDS011;11079;51.092;3.458;2023-07-20T13:34:59;5.82;;;3.95;;
21833;SDS011;11079;51.092;3.458;2023-07-20T13:37:31;4.07;;;3.78;;
21833;SDS011;11079;51.092;3.458;2023-07-20T13:39:58;8.82;;;5.45;;
21833;SDS011;11079;51.092;3.458;2023-07-20T13:42:24;6.60;;;4.65;;
21833;SDS011;11079;51.092;3.458;2023-07-20T13:44:50;5.55;;;4.68;;
21833;SDS011;11079;51.092;3.458;2023-07-20T13:47:16;5.03;;;4.40;;
21833;SDS011;11079;51.092;3.458;2023-07-20T13:49:42;5.95;;;4.93;;
21833;SDS011;11079;51.092;3.458;2023-07-20T13:52:08;6.40;;;4.90;;
21833;SDS011;11079;51.092;3.458;2023-07-20T13:55:11;5.22;;;4.72;;
21833;SDS011;11079;51.092;3.458;2023-07-20T13:57:36;5.03;;;4.53;;
21833;SDS011;11079;51.092;3.458;2023-07-20T14:00:04;6.60;;;4.18;;
21833;SDS011;11079;51.092;3.458;2023-07-20T14:02:30;5.50;;;4.90;;
21833;SDS011;11079;51.092;3.458;2023-07-20T14:05:04;6.30;;;5.40;;
21833;SDS011;11079;51.092;3.458;2023-07-20T14:07:30;6.00;;;5.05;;
21833;SDS011;11079;51.092;3.458;2023-07-20T14:09:56;5.95;;;5.22;;
21833;SDS011;11079;51.092;3.458;2023-07-20T14:12:22;5.78;;;5.15;;
21833;SDS011;11079;51.092;3.458;2023-07-20T14:14:48;6.47;;;5.13;;
21833;SDS011;11079;51.092;3.458;2023-07-20T14:17:13;7.28;;;6.50;;
21833;SDS011;11079;51.092;3.458;2023-07-20T14:19:42;6.47;;;5.88;;
21833;SDS011;11079;51.092;3.458;2023-07-20T14:22:08;5.82;;;5.30;;
21833;SDS011;11079;51.092;3.458;2023-07-20T14:24:34;9.00;;;5.78;;
21833;SDS011;11079;51.092;3.458;2023-07-20T14:26:59;6.20;;;5.70;;
21833;SDS011;11079;51.092;3.458;2023-07-20T14:29:25;8.20;;;6.65;;
21833;SDS011;11079;51.092;3.458;2023-07-20T14:31:51;7.35;;;6.43;;
21833;SDS011;11079;51.092;3.458;2023-07-20T14:34:18;6.40;;;5.72;;
21833;SDS011;11079;51.092;3.458;2023-07-20T14:36:44;7.72;;;6.57;;
21833;SDS011;11079;51.092;3.458;2023-07-20T14:39:10;5.97;;;5.38;;
21833;SDS011;11079;51.092;3.458;2023-07-20T14:41:36;6.72;;;5.78;;
21833;SDS011;11079;51.092;3.458;2023-07-20T14:44:02;6.88;;;6.10;;
21833;SDS011;11079;51.092;3.458;2023-07-20T14:46:28;6.60;;;5.93;;
21833;SDS011;11079;51.092;3.458;2023-07-20T14:48:53;7.32;;;5.70;;
21833;SDS011;11079;51.092;3.458;2023-07-20T14:51:19;8.35;;;6.07;;
21833;SDS011;11079;51.092;3.458;2023-07-20T14:53:44;8.23;;;6.72;;
21833;SDS011;11079;51.092;3.458;2023-07-20T14:56:10;7.25;;;6.50;;
21833;SDS011;11079;51.092;3.458;2023-07-20T14:58:35;6.70;;;6.00;;
21833;SDS011;11079;51.092;3.458;2023-07-20T15:01:01;7.00;;;6.30;;
21833;SDS011;11079;51.092;3.458;2023-07-20T15:03:27;7.30;;;5.88;;
21833;SDS011;11079;51.092;3.458;2023-07-20T15:05:55;7.50;;;6.53;;
21833;SDS011;11079;51.092;3.458;2023-07-20T15:08:21;8.18;;;6.03;;
21833;SDS011;11079;51.092;3.458;2023-07-20T15:10:48;6.30;;;5.75;;
21833;SDS011;11079;51.092;3.458;2023-07-20T15:13:13;6.53;;;5.93;;
21833;SDS011;11079;51.092;3.458;2023-07-20T15:15:40;6.50;;;5.60;;
21833;SDS011;11079;51.092;3.458;2023-07-20T15:18:06;8.13;;;5.45;;
21833;SDS011;11079;51.092;3.458;2023-07-20T15:20:32;6.78;;;5.28;;
21833;SDS011;11079;51.092;3.458;2023-07-20T15:22:58;6.97;;;5.35;;
21833;SDS011;11079;51.092;3.458;2023-07-20T15:25:25;5.38;;;4.30;;
21833;SDS011;11079;51.092;3.458;2023-07-20T15:27:50;4.30;;;3.83;;
21833;SDS011;11079;51.092;3.458;2023-07-20T15:30:16;4.28;;;3.85;;
21833;SDS011;11079;51.092;3.458;2023-07-20T15:33:02;5.95;;;4.80;;